Springfield, IL

7:22 AM CST on December 20, 2014 (GMT -0600)
Northgate Subdivision | Change Station
CLOSE
Current Station
Personal Weather Station
Location: Springfield, IL
Elevation: 590 ft
Nearby Weather Stations

Elev 590 ft 39.83 °N, 89.61 °W | Updated 3 seconds ago

Overcast
Overcast
31.8 °F
Feels Like 32 °F
N
0.0
Wind Variable Wind from ESE
Gusts 2.9 mph

Today
High -- | Low -- °F
--% Chance of Precip.
Yesterday
High -- | Low -- °F
Precip. -- in
7:15 AM 4:36 PM
Waning Crescent, 3% visible
Pressure 30.29 in
Visibility 8.0 miles
Clouds Overcast 6500 ft
Windchill 32 °F
Dew Point 29 °F
Humidity 88%
Rainfall 0.00 in
Snow Depth Not available.
UV 0 out of 12
Pollen .10 out of 12
Air Quality Not available.
Flu Activity Not available.
METAR KSPI 201252Z 13004KT 8SM OVC065 00/M03 A3027 RMK AO2 SLP256 T00001028

More Conditions Fewer Conditions

Pressure 30.29 in
Visibility 8.0 miles
Clouds Overcast 6500 ft
Windchill 32 °F
Dew Point 29 °F
Humidity 88%
Rainfall 0.00 in
Snow Depth Not available.
UV 0 out of 12
Pollen .10 out of 12
Air Quality Not available.
Flu Activity Not available.
METAR KSPI 201252Z 13004KT 8SM OVC065 00/M03 A3027 RMK AO2 SLP256 T00001028

More Conditions Fewer Conditions

10-Day Weather Forecast

Almanac

Astronomy

Dec. 20, 2014 Rise Set
Actual Time
Civil Twilight
Nautical Twilight
Astronomical Twilight
Moon
Length of Visible Light
Length of Day
Tomorrow will be .
, % of the Moon is Illuminated

Today's Extremes

State Highs State Lows

Community

WunderPhotos

Upload Photos

1,779,169 photos uploaded!

WunderBlogs® & News

Nearby

Air Quality

  Air Quality AQ Index Pollutant
Not available.

Snow Depth

Station Depth Elevation

Earthquake Activity

City Distance Mag. Time & Date
Minimum magnitude displayed is 2.5.

Coastal Water Temperatures

Place Temperature

Nearby Weather Stations